Time;durP1;ratioP1;P1;durP2;ratioP2;P2;SDS_P1;SDS_P2;PMS_P1;PMS_P2;Temp;Humidity;BMP_temperature;BMP_pressure;BME280_temperature;BME280_humidity;BME280_pressure;Samples;Min_cycle;Max_cycle;Signal;HPM_P1;HPM_P2
2022/04/01 00:00:16;;;;;;;5.05;3.50;;;1.40;98.40;;;;;;5053639;28;20209;-54
2022/04/01 00:02:44;;;;;;;4.07;3.67;;;1.30;99.30;;;;;;5053447;28;20225;-54
2022/04/01 00:05:11;;;;;;;4.00;3.47;;;1.20;99.90;;;;;;5053603;28;20202;-54
2022/04/01 00:07:40;;;;;;;5.95;3.83;;;1.20;99.90;;;;;;5053379;28;20646;-54
2022/04/01 00:10:08;;;;;;;4.45;3.70;;;1.10;99.90;;;;;;5052980;28;20212;-54
2022/04/01 00:12:39;;;;;;;6.20;3.60;;;1.00;99.90;;;;;;5053058;28;20224;-54
2022/04/01 00:15:07;;;;;;;5.70;3.92;;;1.00;99.90;;;;;;5053253;28;20210;-54
2022/04/01 00:17:36;;;;;;;4.55;3.90;;;0.90;99.90;;;;;;5053139;28;20216;-54
2022/04/01 00:20:04;;;;;;;4.10;3.60;;;0.90;99.90;;;;;;5053384;28;20202;-54
2022/04/01 00:22:31;;;;;;;5.05;4.10;;;0.80;99.90;;;;;;5053692;28;20248;-53
2022/04/01 00:24:58;;;;;;;6.68;4.38;;;0.80;99.90;;;;;;5057258;28;20224;-53
2022/04/01 00:27:25;;;;;;;4.47;4.07;;;0.70;99.90;;;;;;5057673;28;20633;-53
2022/04/01 00:29:52;;;;;;;6.05;4.32;;;0.70;99.90;;;;;;5056949;28;20537;-53
2022/04/01 00:32:21;;;;;;;5.10;4.45;;;0.70;99.90;;;;;;5056763;28;20229;-53
2022/04/01 00:34:51;;;;;;;5.78;4.53;;;0.70;99.90;;;;;;5056940;28;20315;-53
2022/04/01 00:37:18;;;;;;;6.25;5.15;;;0.60;99.90;;;;;;5056596;28;20204;-54
2022/04/01 00:39:46;;;;;;;5.22;4.82;;;0.60;99.90;;;;;;5056661;28;20672;-54
2022/04/01 00:42:13;;;;;;;6.03;4.68;;;0.50;99.90;;;;;;5057103;28;20220;-54
2022/04/01 00:44:42;;;;;;;5.30;4.03;;;0.50;99.90;;;;;;5056579;28;20195;-54
2022/04/01 00:47:11;;;;;;;8.85;4.90;;;0.50;99.90;;;;;;5056409;28;20204;-54
2022/04/01 00:49:39;;;;;;;7.45;5.43;;;0.50;99.90;;;;;;5056667;28;20204;-54
2022/04/01 00:52:09;;;;;;;5.45;4.88;;;0.50;99.90;;;;;;5056593;28;20236;-54
2022/04/01 00:54:36;;;;;;;5.75;5.20;;;0.40;99.90;;;;;;5056862;28;20584;-53
2022/04/01 00:57:04;;;;;;;5.82;5.15;;;0.40;99.90;;;;;;5056732;28;20209;-53
2022/04/01 00:59:32;;;;;;;6.50;5.15;;;0.40;99.90;;;;;;5056488;28;20303;-53
2022/04/01 01:01:59;;;;;;;5.13;4.57;;;0.40;99.90;;;;;;5056644;28;20221;-54
2022/04/01 01:04:27;;;;;;;7.05;4.80;;;0.40;99.90;;;;;;5056441;28;20209;-53
2022/04/01 01:06:56;;;;;;;7.07;5.25;;;0.40;99.90;;;;;;5056061;28;20219;-53
2022/04/01 01:09:26;;;;;;;8.43;6.00;;;0.30;99.90;;;;;;5056272;28;20208;-53
2022/04/01 01:11:54;;;;;;;8.13;5.30;;;0.30;99.90;;;;;;5056303;28;20822;-53
2022/04/01 01:14:26;;;;;;;8.98;6.18;;;0.30;99.90;;;;;;5056427;28;20220;-54
2022/04/01 01:16:54;;;;;;;11.32;6.22;;;0.30;99.90;;;;;;5057022;28;20204;-53
2022/04/01 01:19:21;;;;;;;6.35;5.15;;;0.30;99.90;;;;;;5055949;28;20578;-54
2022/04/01 01:21:52;;;;;;;6.60;5.65;;;0.20;99.90;;;;;;5055768;28;20727;-53
2022/04/01 01:24:28;;;;;;;10.43;5.68;;;0.20;99.90;;;;;;5056086;28;20304;-55
2022/04/01 01:26:55;;;;;;;6.40;5.80;;;0.20;99.90;;;;;;5055987;28;20191;-54
2022/04/01 01:29:26;;;;;;;6.40;5.80;;;0.20;99.90;;;;;;5055791;28;20212;-54
2022/04/01 01:31:55;;;;;;;9.75;6.20;;;0.20;99.90;;;;;;5055392;28;20658;-53
2022/04/01 01:34:23;;;;;;;7.60;5.97;;;0.20;99.90;;;;;;5055742;28;20351;-52
2022/04/01 01:36:51;;;;;;;5.30;4.80;;;0.20;99.90;;;;;;5054957;28;20564;-53
2022/04/01 01:39:18;;;;;;;6.15;5.55;;;0.20;99.90;;;;;;5055906;28;20702;-53
2022/04/01 01:41:47;;;;;;;6.45;5.55;;;0.20;99.90;;;;;;5055646;28;20208;-53
2022/04/01 01:44:15;;;;;;;6.15;5.43;;;0.20;99.90;;;;;;5055296;28;20205;-53
2022/04/01 01:46:43;;;;;;;9.55;5.20;;;0.10;99.90;;;;;;5055564;28;20228;-53
2022/04/01 01:49:11;;;;;;;6.60;5.70;;;0.10;99.90;;;;;;5055263;28;20207;-54
2022/04/01 01:54:44;;;;;;;6.20;5.50;;;0.10;99.90;;;;;;5055586;28;20300;-53
2022/04/01 01:57:15;;;;;;;6.90;6.20;;;0.10;99.90;;;;;;5055510;28;20268;-53
2022/04/01 01:59:42;;;;;;;7.10;5.60;;;0.10;99.90;;;;;;5055061;28;20206;-54
2022/04/01 02:02:10;;;;;;;7.35;6.07;;;0.10;99.90;;;;;;5055011;28;20263;-54
2022/04/01 02:04:39;;;;;;;7.43;6.00;;;0.10;99.90;;;;;;5055314;28;20196;-54
2022/04/01 02:07:07;;;;;;;8.27;6.25;;;0.10;99.90;;;;;;5055198;28;20259;-54
2022/04/01 02:09:34;;;;;;;8.80;6.78;;;0.10;99.90;;;;;;5054881;28;20200;-54
2022/04/01 02:12:01;;;;;;;6.85;6.15;;;0.00;99.90;;;;;;5055062;28;20333;-53
2022/04/01 02:14:30;;;;;;;6.78;6.05;;;0.00;99.90;;;;;;5054752;28;20229;-53
2022/04/01 02:16:58;;;;;;;7.82;6.50;;;0.00;99.90;;;;;;5054721;28;20207;-53
2022/04/01 02:19:25;;;;;;;7.38;6.65;;;0.00;99.90;;;;;;5054649;28;20712;-54
2022/04/01 02:21:53;;;;;;;7.53;6.80;;;0.00;99.90;;;;;;5054794;28;20229;-55
2022/04/01 02:24:22;;;;;;;8.50;7.22;;;0.00;99.90;;;;;;5054639;28;20204;-54
2022/04/01 02:26:49;;;;;;;9.73;6.95;;;0.00;99.90;;;;;;5054798;28;20240;-53
2022/04/01 02:29:18;;;;;;;9.18;6.40;;;0.00;99.90;;;;;;5054880;28;20263;-53
2022/04/01 02:31:48;;;;;;;10.18;6.95;;;0.00;99.90;;;;;;5054657;28;20204;-54
2022/04/01 02:34:15;;;;;;;8.02;6.40;;;-0.10;99.90;;;;;;5054793;28;20212;-53
2022/04/01 02:36:43;;;;;;;8.00;6.22;;;-0.10;99.90;;;;;;5054902;28;20235;-53
2022/04/01 02:39:10;;;;;;;8.50;6.70;;;-0.10;99.90;;;;;;5054801;28;20200;-53
2022/04/01 02:41:37;;;;;;;8.00;6.72;;;-0.10;99.90;;;;;;5054402;28;20197;-53
2022/04/01 02:44:12;;;;;;;6.95;5.93;;;-0.10;99.90;;;;;;5054947;28;20211;-52
2022/04/01 02:46:42;;;;;;;7.93;6.50;;;-0.10;99.90;;;;;;5055479;28;20196;-53
2022/04/01 02:49:13;;;;;;;7.45;6.65;;;-0.10;99.90;;;;;;5054333;28;20566;-53
2022/04/01 02:51:42;;;;;;;6.95;6.07;;;-0.10;99.90;;;;;;5055048;28;20193;-53
2022/04/01 02:54:10;;;;;;;7.45;6.75;;;-0.10;99.90;;;;;;5055392;28;20217;-53
2022/04/01 02:56:39;;;;;;;8.93;6.53;;;-0.10;99.90;;;;;;5055545;28;20212;-53
2022/04/01 02:59:08;;;;;;;9.43;6.45;;;-0.10;99.90;;;;;;5055158;28;20223;-53
2022/04/01 03:01:36;;;;;;;8.32;6.50;;;-0.10;99.90;;;;;;5054896;28;20210;-53
2022/04/01 03:04:04;;;;;;;8.75;5.70;;;-0.10;99.90;;;;;;5055159;28;20235;-53
2022/04/01 03:06:34;;;;;;;8.07;7.28;;;-0.20;99.90;;;;;;5054929;28;20230;-53
2022/04/01 03:09:01;;;;;;;6.80;5.72;;;-0.20;99.90;;;;;;5054910;28;20236;-52
2022/04/01 03:11:28;;;;;;;7.65;5.80;;;-0.20;99.90;;;;;;5054757;28;20243;-54
2022/04/01 03:13:55;;;;;;;10.73;6.80;;;-0.20;99.90;;;;;;5054526;28;20209;-53
2022/04/01 03:16:23;;;;;;;10.07;7.20;;;-0.20;99.90;;;;;;5054026;28;20747;-53
2022/04/01 03:18:50;;;;;;;8.60;6.20;;;-0.20;99.90;;;;;;5054672;28;20319;-52
2022/04/01 03:21:17;;;;;;;7.65;6.65;;;-0.20;99.90;;;;;;5054623;28;20211;-51
2022/04/01 03:23:45;;;;;;;7.25;6.53;;;-0.20;99.90;;;;;;5054373;28;20234;-53
2022/04/01 03:26:13;;;;;;;10.18;6.85;;;-0.30;99.90;;;;;;5054119;28;20208;-53
2022/04/01 03:28:40;;;;;;;9.88;6.95;;;-0.30;99.90;;;;;;5053839;28;20665;-53
2022/04/01 03:31:09;;;;;;;8.98;6.72;;;-0.30;99.90;;;;;;5053650;28;20246;-53
2022/04/01 03:33:38;;;;;;;7.50;5.88;;;-0.20;99.90;;;;;;5053602;28;20232;-53
2022/04/01 03:36:06;;;;;;;10.35;7.80;;;-0.30;99.90;;;;;;5054033;28;20225;-52
2022/04/01 03:38:33;;;;;;;8.15;7.35;;;-0.30;99.90;;;;;;5053457;28;20211;-53
2022/04/01 03:41:02;;;;;;;10.00;7.50;;;-0.30;99.90;;;;;;5053483;28;20205;-53
2022/04/01 03:43:30;;;;;;;10.68;7.45;;;-0.30;99.90;;;;;;5054233;28;20224;-53
2022/04/01 03:45:59;;;;;;;9.45;6.60;;;-0.30;99.90;;;;;;5054314;28;20579;-52
2022/04/01 03:48:31;;;;;;;9.32;7.53;;;-0.30;99.90;;;;;;5053866;28;20204;-52
2022/04/01 03:50:59;;;;;;;8.10;7.30;;;-0.30;99.90;;;;;;5053747;28;20662;-53
2022/04/01 03:53:30;;;;;;;9.75;6.40;;;-0.40;99.90;;;;;;5053784;28;20224;-53
2022/04/01 03:55:59;;;;;;;11.05;7.47;;;-0.40;99.90;;;;;;5053597;28;20220;-52
2022/04/01 03:58:30;;;;;;;13.73;7.50;;;-0.40;99.90;;;;;;5053612;28;20231;-53
2022/04/01 04:01:00;;;;;;;9.88;7.50;;;-0.40;99.90;;;;;;5053099;28;20196;-52
2022/04/01 04:03:29;;;;;;;13.32;8.27;;;-0.40;99.90;;;;;;5053324;28;20224;-52
2022/04/01 04:05:57;;;;;;;9.02;7.40;;;-0.30;99.90;;;;;;5053325;28;20200;-53
2022/04/01 04:09:36;;;;;;;13.68;8.27;;;-0.40;99.90;;;;;;5112246;27;20550;-52
2022/04/01 04:12:03;;;;;;;9.68;7.47;;;-0.30;99.90;;;;;;5111136;28;20219;-53
2022/04/01 04:14:32;;;;;;;9.48;8.20;;;-0.30;99.90;;;;;;5111477;28;20198;-52
2022/04/01 04:17:06;;;;;;;9.93;8.20;;;-0.30;99.90;;;;;;5111411;28;20206;-53
2022/04/01 04:19:49;;;;;;;9.85;7.90;;;-0.30;99.90;;;;;;5111809;28;20189;-52
2022/04/01 04:22:18;;;;;;;7.82;6.43;;;-0.30;99.90;;;;;;5112010;28;20233;-52
2022/04/01 04:24:54;;;;;;;11.45;7.55;;;-0.30;99.90;;;;;;5111062;28;20210;-53
2022/04/01 04:27:27;;;;;;;8.90;7.32;;;-0.30;99.90;;;;;;5111160;28;20224;-53
2022/04/01 04:30:03;;;;;;;9.30;7.80;;;-0.30;99.90;;;;;;5111031;28;20194;-53
2022/04/01 04:32:35;;;;;;;12.52;8.13;;;-0.30;99.90;;;;;;5110749;28;20229;-53
2022/04/01 04:35:05;;;;;;;10.75;7.25;;;-0.30;99.90;;;;;;5110509;28;20647;-53
2022/04/01 04:37:35;;;;;;;13.98;6.72;;;-0.30;99.90;;;;;;5110621;28;20202;-53
2022/04/01 04:40:05;;;;;;;12.38;8.02;;;-0.30;99.90;;;;;;5110516;28;20589;-52
2022/04/01 04:42:33;;;;;;;10.07;7.43;;;-0.40;99.90;;;;;;5110089;28;20699;-52
2022/04/01 04:45:00;;;;;;;8.63;7.72;;;-0.40;99.90;;;;;;5110235;28;20203;-53
2022/04/01 04:47:29;;;;;;;9.75;7.53;;;-0.40;99.90;;;;;;5084741;22;20236;-54
2022/04/01 04:49:58;;;;;;;10.43;8.70;;;-0.40;99.90;;;;;;5051329;28;20256;-53
2022/04/01 04:52:32;;;;;;;12.52;7.93;;;-0.40;99.90;;;;;;5051090;28;20205;-55
2022/04/01 04:55:00;;;;;;;8.68;6.80;;;-0.30;99.90;;;;;;5051276;28;20192;-55
2022/04/01 04:57:29;;;;;;;8.90;7.00;;;-0.30;99.90;;;;;;5050390;28;20263;-55
2022/04/01 04:59:58;;;;;;;13.00;8.18;;;-0.30;99.90;;;;;;5050527;28;20231;-55
2022/04/01 05:02:39;;;;;;;10.35;7.80;;;-0.30;99.90;;;;;;5050180;28;20212;-53
2022/04/01 05:05:15;;;;;;;11.70;7.57;;;-0.30;99.90;;;;;;5050573;28;20720;-54
2022/04/01 05:07:53;;;;;;;10.93;7.22;;;-0.30;99.90;;;;;;5050324;28;20232;-54
2022/04/01 05:10:27;;;;;;;9.02;7.57;;;-0.30;99.90;;;;;;5050461;28;20326;-54
2022/04/01 05:13:03;;;;;;;10.20;7.32;;;-0.30;99.90;;;;;;5050813;28;20662;-54
2022/04/01 05:15:34;;;;;;;13.68;7.45;;;-0.30;99.90;;;;;;5050643;28;20214;-53
2022/04/01 05:18:09;;;;;;;6.72;5.45;;;-0.30;99.90;;;;;;5050806;28;20185;-54
2022/04/01 05:20:39;;;;;;;8.82;7.35;;;-0.30;99.90;;;;;;5040349;28;20212;-53
2022/04/01 05:23:13;;;;;;;8.65;7.50;;;-0.30;99.90;;;;;;5038534;28;20531;-54
2022/04/01 05:25:45;;;;;;;9.68;7.65;;;-0.30;99.90;;;;;;5039736;28;20209;-54
2022/04/01 05:28:22;;;;;;;11.98;8.57;;;-0.30;99.90;;;;;;5039515;28;20229;-54
2022/04/01 05:30:57;;;;;;;11.35;7.72;;;-0.30;99.90;;;;;;5039735;28;20668;-54
2022/04/01 05:33:28;;;;;;;11.48;8.20;;;-0.30;99.90;;;;;;5038192;28;20189;-53
2022/04/01 05:35:57;;;;;;;9.73;7.95;;;-0.30;99.90;;;;;;5038225;28;20229;-55
2022/04/01 05:38:25;;;;;;;9.40;7.43;;;-0.30;99.90;;;;;;5039104;28;20704;-54
2022/04/01 05:40:52;;;;;;;13.38;8.15;;;-0.30;99.90;;;;;;5038944;28;20693;-54
2022/04/01 05:43:23;;;;;;;10.00;7.68;;;-0.30;99.90;;;;;;5039154;28;20296;-53
2022/04/01 05:45:53;;;;;;;15.15;7.68;;;-0.30;99.90;;;;;;5040105;28;20245;-54
2022/04/01 05:48:22;;;;;;;7.35;5.93;;;-0.30;99.90;;;;;;5038760;28;20221;-55
2022/04/01 05:50:51;;;;;;;11.80;6.65;;;-0.40;99.90;;;;;;5039589;28;20296;-54
2022/04/01 05:53:21;;;;;;;9.30;6.75;;;-0.30;99.90;;;;;;5042375;28;20204;-55
2022/04/01 05:55:51;;;;;;;9.18;6.43;;;-0.40;99.90;;;;;;5049284;28;20220;-54
2022/04/01 05:58:18;;;;;;;7.10;6.40;;;-0.40;99.90;;;;;;5069525;28;20200;-55
2022/04/01 06:01:04;;;;;;;10.48;7.32;;;-0.40;99.90;;;;;;5056789;28;20202;-55
2022/04/01 06:04:05;;;;;;;8.93;7.30;;;-0.30;99.90;;;;;;5048561;28;20197;-54
2022/04/01 06:06:41;;;;;;;8.80;7.20;;;-0.30;99.90;;;;;;5047216;28;20437;-54
2022/04/01 06:09:21;;;;;;;13.20;6.10;;;-0.30;99.90;;;;;;5048040;28;20213;-55
2022/04/01 06:11:59;;;;;;;10.00;7.10;;;-0.30;99.90;;;;;;5047958;28;20189;-55
2022/04/01 06:14:36;;;;;;;9.98;6.45;;;-0.30;99.90;;;;;;5045884;28;20197;-53
2022/04/01 06:17:12;;;;;;;10.93;7.28;;;-0.20;99.90;;;;;;5047138;28;20433;-56
2022/04/01 06:19:45;;;;;;;8.75;6.13;;;-0.20;99.90;;;;;;5046102;28;20182;-54
2022/04/01 06:22:15;;;;;;;7.70;5.93;;;-0.30;99.90;;;;;;5045767;28;20217;-55
2022/04/01 06:24:50;;;;;;;11.18;6.65;;;-0.20;99.90;;;;;;5047425;28;20216;-56
2022/04/01 06:27:23;;;;;;;12.13;6.70;;;-0.30;99.90;;;;;;5047675;28;20233;-55
2022/04/01 06:30:02;;;;;;;7.45;5.72;;;-0.20;99.90;;;;;;5045180;28;20217;-55
2022/04/01 06:32:39;;;;;;;7.45;5.70;;;-0.20;99.90;;;;;;5038659;28;20277;-55
2022/04/01 06:35:12;;;;;;;7.50;5.90;;;-0.10;99.90;;;;;;5034493;28;20207;-54
2022/04/01 06:37:44;;;;;;;9.30;6.20;;;-0.10;99.90;;;;;;5038027;28;20327;-55
2022/04/01 06:40:12;;;;;;;9.15;6.13;;;-0.10;99.90;;;;;;5035173;28;20189;-54
2022/04/01 06:42:41;;;;;;;8.63;6.20;;;-0.10;99.90;;;;;;5034012;28;20733;-55
2022/04/01 06:45:10;;;;;;;9.20;6.35;;;-0.10;99.90;;;;;;5035295;28;20203;-55
2022/04/01 06:47:40;;;;;;;7.75;5.40;;;-0.20;99.90;;;;;;5034583;28;20235;-55
2022/04/01 06:50:09;;;;;;;7.45;5.90;;;-0.20;99.90;;;;;;5034643;28;20214;-54
2022/04/01 06:52:37;;;;;;;10.50;6.30;;;-0.20;99.90;;;;;;5034747;28;20498;-54
2022/04/01 06:55:08;;;;;;;10.25;7.00;;;-0.20;99.90;;;;;;5033971;28;20208;-55
2022/04/01 06:57:35;;;;;;;10.07;6.82;;;-0.10;99.90;;;;;;5034950;28;20596;-54
2022/04/01 07:00:03;;;;;;;10.90;5.40;;;-0.10;99.90;;;;;;5034685;28;20201;-53
2022/04/01 07:02:30;;;;;;;9.68;7.15;;;-0.10;99.90;;;;;;5034308;28;20232;-56
2022/04/01 07:04:59;;;;;;;11.77;6.47;;;-0.10;99.90;;;;;;5034950;28;20212;-55
2022/04/01 07:07:26;;;;;;;6.85;5.90;;;-0.10;99.90;;;;;;5034159;28;20272;-55
2022/04/01 07:09:53;;;;;;;10.80;6.63;;;0.00;99.90;;;;;;5033794;28;20222;-56
2022/04/01 07:12:21;;;;;;;10.63;6.35;;;0.00;99.90;;;;;;5026094;28;20200;-55
2022/04/01 07:15:00;;;;;;;8.15;6.45;;;0.00;99.90;;;;;;5054495;28;20200;-56
2022/04/01 07:17:28;;;;;;;8.30;7.50;;;0.10;99.90;;;;;;5033894;28;20573;-56
2022/04/01 07:19:55;;;;;;;7.60;6.25;;;0.20;99.90;;;;;;5034578;28;20201;-56
2022/04/01 07:22:24;;;;;;;6.82;5.32;;;0.30;99.90;;;;;;5034375;28;20209;-55
2022/04/01 07:24:51;;;;;;;7.25;5.28;;;0.30;99.90;;;;;;5034559;28;20205;-56
2022/04/01 07:27:19;;;;;;;7.82;6.30;;;0.40;99.90;;;;;;5035502;28;20597;-56
2022/04/01 07:29:46;;;;;;;9.18;5.97;;;0.40;99.90;;;;;;5033923;28;20226;-57
2022/04/01 07:32:32;;;;;;;9.32;5.60;;;0.50;99.90;;;;;;5035365;28;20199;-56
2022/04/01 07:35:00;;;;;;;10.32;5.45;;;0.60;99.90;;;;;;5035594;28;20287;-55
2022/04/01 07:37:31;;;;;;;8.50;5.55;;;0.60;99.90;;;;;;5035938;28;20233;-56
2022/04/01 07:39:58;;;;;;;9.23;6.15;;;0.60;99.90;;;;;;5036904;28;20189;-55
2022/04/01 07:42:26;;;;;;;8.82;5.90;;;0.80;99.90;;;;;;5035135;28;20201;-55
2022/04/01 07:44:54;;;;;;;7.97;6.30;;;0.90;99.90;;;;;;5033894;28;20209;-56
2022/04/01 07:47:21;;;;;;;8.48;5.53;;;1.00;99.90;;;;;;5034129;28;20658;-56
2022/04/01 07:49:50;;;;;;;6.15;5.55;;;1.10;99.90;;;;;;5033559;28;20640;-56
2022/04/01 07:52:18;;;;;;;6.63;5.25;;;1.20;99.90;;;;;;5033245;28;20201;-57
2022/04/01 07:54:54;;;;;;;10.90;6.75;;;1.30;99.90;;;;;;5032838;28;20209;-56
2022/04/01 07:57:23;;;;;;;6.50;5.32;;;1.50;99.90;;;;;;5032250;28;20677;-57
2022/04/01 07:59:50;;;;;;;5.38;4.85;;;1.70;99.90;;;;;;5033052;28;20213;-58
2022/04/01 08:02:17;;;;;;;7.93;5.95;;;1.80;99.90;;;;;;5033329;28;20217;-58
2022/04/01 08:04:44;;;;;;;7.13;4.60;;;2.10;99.90;;;;;;5033042;28;20203;-57
2022/04/01 08:07:12;;;;;;;6.57;4.70;;;2.20;99.90;;;;;;5032379;28;20230;-57
2022/04/01 08:09:39;;;;;;;8.35;4.70;;;2.30;99.90;;;;;;5033261;28;20226;-57
2022/04/01 08:12:09;;;;;;;5.30;4.45;;;2.40;99.90;;;;;;5032814;28;20202;-57
2022/04/01 08:14:37;;;;;;;5.75;4.57;;;2.40;99.90;;;;;;5033160;28;20284;-58
2022/04/01 08:17:06;;;;;;;5.07;3.75;;;2.40;99.90;;;;;;5032876;28;20655;-57
2022/04/01 08:19:33;;;;;;;8.00;4.88;;;2.40;99.90;;;;;;5032346;28;20208;-57
2022/04/01 08:22:01;;;;;;;6.85;4.30;;;2.40;99.90;;;;;;5033431;28;20210;-57
2022/04/01 08:24:28;;;;;;;6.10;4.75;;;2.50;99.90;;;;;;5033341;28;20213;-56
2022/04/01 08:26:57;;;;;;;6.57;4.20;;;2.60;99.90;;;;;;5031855;28;20724;-58
2022/04/01 08:29:26;;;;;;;4.03;3.67;;;2.70;99.90;;;;;;5032800;28;20222;-58
2022/04/01 08:31:53;;;;;;;6.07;5.18;;;2.80;99.90;;;;;;5032603;28;20203;-58
2022/04/01 08:34:21;;;;;;;5.05;4.55;;;2.90;99.90;;;;;;5033904;28;20213;-55
2022/04/01 08:36:48;;;;;;;6.30;4.22;;;2.90;99.90;;;;;;5033233;28;20234;-57
2022/04/01 08:39:15;;;;;;;6.82;4.70;;;2.90;99.90;;;;;;5032793;28;20210;-59
2022/04/01 08:41:42;;;;;;;5.80;4.55;;;2.90;99.90;;;;;;5031919;28;20210;-58
2022/04/01 08:44:09;;;;;;;5.95;4.90;;;2.90;99.90;;;;;;5033117;28;20206;-58
2022/04/01 08:46:38;;;;;;;6.38;4.50;;;2.90;99.90;;;;;;5032885;28;20237;-56
2022/04/01 08:49:06;;;;;;;9.45;4.65;;;2.80;99.90;;;;;;5031263;28;20469;-57
2022/04/01 08:51:34;;;;;;;7.20;5.13;;;2.90;99.90;;;;;;5032582;28;20214;-57
2022/04/01 08:54:02;;;;;;;7.78;4.80;;;3.00;99.90;;;;;;5039154;28;20203;-57
2022/04/01 08:56:32;;;;;;;6.32;4.32;;;3.20;99.90;;;;;;5035981;28;20639;-56
2022/04/01 08:59:05;;;;;;;11.25;4.60;;;3.40;99.90;;;;;;5037160;28;20198;-56
2022/04/01 09:01:45;;;;;;;5.88;4.50;;;3.40;99.90;;;;;;5037308;28;20193;-55
2022/04/01 09:04:22;;;;;;;4.80;3.83;;;3.40;99.90;;;;;;5036608;28;20286;-56
2022/04/01 09:06:50;;;;;;;5.60;4.38;;;3.50;99.90;;;;;;5038113;28;20222;-55
2022/04/01 09:09:31;;;;;;;6.60;4.72;;;3.40;99.30;;;;;;5037562;28;20700;-55
2022/04/01 09:12:12;;;;;;;8.98;4.60;;;3.40;99.00;;;;;;5036077;28;20190;-55
2022/04/01 09:14:40;;;;;;;8.88;4.32;;;3.50;98.50;;;;;;5035743;28;20253;-55
2022/04/01 09:17:12;;;;;;;5.45;4.72;;;3.50;98.20;;;;;;5036190;28;20227;-56
2022/04/01 09:19:40;;;;;;;5.03;4.30;;;3.60;97.90;;;;;;5036379;28;20229;-55
2022/04/01 09:22:19;;;;;;;7.15;5.03;;;3.70;97.20;;;;;;5037628;28;20203;-57
2022/04/01 09:25:02;;;;;;;6.63;3.95;;;3.70;95.90;;;;;;5035899;28;20682;-57
2022/04/01 09:27:45;;;;;;;5.60;4.78;;;3.60;96.10;;;;;;5036160;28;20237;-57
2022/04/01 09:30:15;;;;;;;4.82;4.35;;;3.80;96.60;;;;;;5035648;28;20249;-57
2022/04/01 09:32:46;;;;;;;6.40;4.60;;;4.10;95.90;;;;;;5037264;28;20437;-56
2022/04/01 09:35:14;;;;;;;6.55;4.60;;;4.20;94.70;;;;;;5039801;28;20551;-58
2022/04/01 09:37:43;;;;;;;5.50;4.50;;;4.10;93.00;;;;;;5036216;28;20228;-56
2022/04/01 09:40:13;;;;;;;4.40;4.00;;;4.00;93.60;;;;;;5036442;28;20199;-57
2022/04/01 09:42:48;;;;;;;5.05;4.20;;;4.00;93.30;;;;;;5036615;28;20202;-57
2022/04/01 09:45:20;;;;;;;4.65;4.20;;;4.00;92.80;;;;;;5035702;28;20671;-59
2022/04/01 09:47:58;;;;;;;5.68;5.03;;;3.90;92.60;;;;;;5035725;28;20236;-58
2022/04/01 09:50:28;;;;;;;8.80;4.20;;;3.90;92.70;;;;;;5035126;28;21003;-58
2022/04/01 09:53:16;;;;;;;5.82;4.43;;;4.00;92.50;;;;;;5033663;28;20449;-59
2022/04/01 09:55:45;;;;;;;9.88;4.50;;;4.10;92.10;;;;;;5034528;28;20252;-60
2022/04/01 09:58:14;;;;;;;7.40;4.70;;;4.20;91.90;;;;;;5035514;28;20218;-59
2022/04/01 10:00:42;;;;;;;9.32;4.60;;;4.20;91.70;;;;;;5034299;28;20739;-59
2022/04/01 10:03:12;;;;;;;5.13;3.97;;;4.40;91.50;;;;;;5035165;28;20203;-58
2022/04/01 10:05:41;;;;;;;5.72;4.95;;;4.60;90.40;;;;;;5035026;28;20192;-58
2022/04/01 10:08:10;;;;;;;8.25;4.25;;;4.50;89.70;;;;;;5034688;28;20294;-57
2022/04/01 10:10:47;;;;;;;9.15;4.10;;;4.60;89.30;;;;;;5035948;28;20688;-57
2022/04/01 10:13:24;;;;;;;6.30;3.95;;;4.60;85.50;;;;;;5035549;28;20702;-58
2022/04/01 10:15:53;;;;;;;4.88;3.80;;;4.60;84.70;;;;;;5035164;28;20239;-58
2022/04/01 10:18:23;;;;;;;3.83;3.47;;;4.60;81.20;;;;;;5034139;28;20206;-57
2022/04/01 10:20:56;;;;;;;4.75;3.00;;;4.50;76.50;;;;;;5035000;28;20223;-57
2022/04/01 10:23:39;;;;;;;6.10;3.60;;;4.40;76.20;;;;;;5033692;28;20446;-59
2022/04/01 10:26:25;;;;;;;3.78;3.47;;;4.50;75.40;;;;;;5034227;28;20234;-56
2022/04/01 10:29:04;;;;;;;3.67;3.17;;;4.50;71.20;;;;;;5035640;28;20226;-57
2022/04/01 10:31:46;;;;;;;5.30;3.92;;;4.30;65.80;;;;;;5036756;28;20191;-57
2022/04/01 10:34:48;;;;;;;4.35;3.05;;;4.30;65.50;;;;;;5033951;28;20199;-56
2022/04/01 10:37:21;;;;;;;4.15;3.28;;;4.30;66.10;;;;;;5033473;28;20289;-55
2022/04/01 10:39:50;;;;;;;4.13;2.85;;;4.50;65.90;;;;;;5034087;28;20184;-57
2022/04/01 10:42:18;;;;;;;5.80;3.30;;;4.50;65.10;;;;;;5034647;28;20576;-57
2022/04/01 10:44:47;;;;;;;3.60;3.10;;;4.60;64.70;;;;;;5033253;28;20210;-57
2022/04/01 10:47:14;;;;;;;4.45;2.70;;;4.60;62.10;;;;;;5035028;28;20387;-57
2022/04/01 10:52:29;;;;;;;3.42;2.67;;;4.70;61.50;;;;;;5034615;28;20242;-59
2022/04/01 10:55:09;;;;;;;3.30;3.00;;;4.70;61.00;;;;;;5015226;28;20211;-59
2022/04/01 10:57:41;;;;;;;5.35;3.20;;;4.70;60.20;;;;;;5015051;28;20184;-58
2022/04/01 11:00:13;;;;;;;3.22;2.92;;;4.70;59.40;;;;;;5022825;28;20269;-60
2022/04/01 11:02:40;;;;;;;3.05;2.75;;;4.70;57.80;;;;;;5032001;28;20473;-59
2022/04/01 11:05:28;;;;;;;5.60;3.20;;;4.60;55.90;;;;;;5034010;28;20211;-60
2022/04/01 11:08:20;;;;;;;4.10;2.88;;;4.50;55.50;;;;;;5034105;28;20639;-59
2022/04/01 11:11:07;;;;;;;4.90;3.60;;;4.40;56.10;;;;;;5043505;28;20230;-60
2022/04/01 11:13:35;;;;;;;5.97;2.95;;;4.30;55.90;;;;;;5054533;28;20721;-60
2022/04/01 11:16:16;;;;;;;5.53;3.17;;;4.30;55.30;;;;;;5055393;28;20619;-60
2022/04/01 11:19:16;;;;;;;3.92;3.00;;;4.30;54.80;;;;;;5054667;28;20641;-60
2022/04/01 11:21:46;;;;;;;4.45;2.30;;;4.20;54.60;;;;;;5056041;28;20229;-60
2022/04/01 11:24:35;;;;;;;3.00;2.60;;;4.20;54.10;;;;;;5054163;28;20797;-59
2022/04/01 11:27:22;;;;;;;4.68;2.70;;;4.30;54.10;;;;;;5053122;28;20558;-60
2022/04/01 11:30:08;;;;;;;3.95;2.47;;;4.40;54.00;;;;;;5053904;28;20737;-61
2022/04/01 11:32:36;;;;;;;2.67;2.40;;;4.40;54.20;;;;;;5054101;28;20547;-58
2022/04/01 11:35:05;;;;;;;2.85;2.47;;;4.50;54.20;;;;;;5051425;28;20206;-59
2022/04/01 11:37:37;;;;;;;8.55;2.65;;;4.60;54.50;;;;;;5034563;28;20207;-58
2022/04/01 11:40:09;;;;;;;6.15;2.30;;;4.80;54.70;;;;;;5033877;28;20706;-59
2022/04/01 11:42:48;;;;;;;3.13;2.10;;;4.90;54.40;;;;;;5034575;28;20571;-59
2022/04/01 11:45:15;;;;;;;4.72;2.63;;;5.10;54.40;;;;;;5035398;28;20203;-59
2022/04/01 11:47:42;;;;;;;7.45;2.72;;;5.20;53.80;;;;;;5053979;28;20671;-58
2022/04/01 11:50:11;;;;;;;2.90;2.53;;;5.20;53.70;;;;;;5053414;28;20713;-58
2022/04/01 11:52:40;;;;;;;6.05;2.78;;;5.20;54.00;;;;;;5053626;28;20579;-59
2022/04/01 11:55:12;;;;;;;4.88;2.60;;;5.30;54.30;;;;;;5036306;28;20207;-60
2022/04/01 11:57:40;;;;;;;6.15;2.78;;;5.40;54.20;;;;;;5037751;28;20690;-60
2022/04/01 12:00:11;;;;;;;9.20;2.83;;;5.50;54.30;;;;;;5054343;28;20224;-59
2022/04/01 12:02:38;;;;;;;4.30;2.75;;;5.50;54.10;;;;;;5055471;28;20197;-57
2022/04/01 12:05:06;;;;;;;5.78;2.65;;;5.60;54.60;;;;;;5055294;28;20204;-60
2022/04/01 12:10:21;;;;;;;5.10;2.80;;;5.60;54.40;;;;;;5054835;28;20296;-58
2022/04/01 12:12:55;;;;;;;3.90;2.90;;;5.70;54.60;;;;;;5054346;28;20204;-56
2022/04/01 12:15:34;;;;;;;9.48;2.80;;;5.80;54.30;;;;;;5052889;28;20203;-57
2022/04/01 12:18:01;;;;;;;9.68;2.97;;;5.80;54.50;;;;;;5058292;28;20211;-60
2022/04/01 12:20:29;;;;;;;5.90;2.88;;;5.70;53.70;;;;;;5057116;28;20216;-58
2022/04/01 12:22:57;;;;;;;6.00;2.08;;;5.70;53.20;;;;;;5053750;28;20214;-60
2022/04/01 12:25:26;;;;;;;6.22;3.03;;;5.50;51.50;;;;;;5054124;28;20216;-59
2022/04/01 12:27:54;;;;;;;3.35;2.42;;;5.40;51.80;;;;;;5054254;28;20209;-61
2022/04/01 12:30:38;;;;;;;8.07;2.70;;;5.40;52.60;;;;;;5056189;28;20223;-60
2022/04/01 12:33:07;;;;;;;4.75;2.75;;;5.50;52.50;;;;;;5057559;28;20211;-59
2022/04/01 12:35:35;;;;;;;6.15;2.17;;;5.50;51.30;;;;;;5060392;28;20203;-58
2022/04/01 12:38:06;;;;;;;5.90;2.55;;;5.40;51.20;;;;;;5068994;28;20214;-59
2022/04/01 12:40:52;;;;;;;12.40;3.47;;;5.50;51.40;;;;;;5072508;28;20293;-59
2022/04/01 12:43:34;;;;;;;3.85;2.03;;;5.60;51.50;;;;;;5066991;28;20191;-59
2022/04/01 12:46:02;;;;;;;10.88;2.60;;;5.80;51.20;;;;;;5063026;28;20210;-60
2022/04/01 12:48:29;;;;;;;9.80;2.08;;;5.70;50.80;;;;;;5057603;28;20204;-59
2022/04/01 12:50:58;;;;;;;4.70;2.05;;;5.60;49.10;;;;;;5057878;28;20235;-58
2022/04/01 12:53:25;;;;;;;4.05;2.05;;;5.40;47.80;;;;;;5068580;28;20208;-59
2022/04/01 12:55:55;;;;;;;10.10;2.10;;;5.30;48.20;;;;;;5059561;28;20212;-59
2022/04/01 12:58:23;;;;;;;2.60;2.03;;;5.40;48.70;;;;;;5059218;28;20246;-59
2022/04/01 13:00:50;;;;;;;7.93;2.35;;;5.60;49.00;;;;;;5059040;28;20632;-59
2022/04/01 13:03:17;;;;;;;5.38;2.50;;;5.70;49.30;;;;;;5059210;28;20230;-59
2022/04/01 13:05:44;;;;;;;7.07;2.33;;;5.80;49.40;;;;;;5058354;28;20212;-59
2022/04/01 13:08:12;;;;;;;2.90;2.58;;;5.90;49.90;;;;;;5057298;28;20211;-59
2022/04/01 13:10:39;;;;;;;5.97;2.40;;;5.90;50.50;;;;;;5057935;28;20683;-60
2022/04/01 13:13:20;;;;;;;5.35;2.70;;;5.90;51.20;;;;;;5058483;28;20718;-59
2022/04/01 13:15:52;;;;;;;5.50;2.40;;;5.80;51.80;;;;;;5057914;28;20218;-59
2022/04/01 13:18:25;;;;;;;5.55;2.45;;;5.70;52.70;;;;;;5057081;28;20234;-59
2022/04/01 13:20:52;;;;;;;8.15;2.55;;;5.50;53.80;;;;;;5058808;28;20219;-59